sensor_id;sensor_type;location;lat;lon;timestamp;P1;durP1;ratioP1;P2;durP2;ratioP2
39314;SDS011;28703;44.412;11.918;2023-04-01T00:00:57;5.80;;;3.58;;
39314;SDS011;28703;44.412;11.918;2023-04-01T00:03:25;7.32;;;3.58;;
39314;SDS011;28703;44.412;11.918;2023-04-01T00:05:55;5.25;;;3.53;;
39314;SDS011;28703;44.412;11.918;2023-04-01T00:08:25;5.30;;;3.83;;
39314;SDS011;28703;44.412;11.918;2023-04-01T00:10:55;5.78;;;3.88;;
39314;SDS011;28703;44.412;11.918;2023-04-01T00:13:22;5.50;;;3.58;;
39314;SDS011;28703;44.412;11.918;2023-04-01T00:15:51;8.32;;;3.95;;
39314;SDS011;28703;44.412;11.918;2023-04-01T00:18:18;4.10;;;3.45;;
39314;SDS011;28703;44.412;11.918;2023-04-01T00:20:47;10.25;;;3.40;;
39314;SDS011;28703;44.412;11.918;2023-04-01T00:23:17;11.00;;;4.07;;
39314;SDS011;28703;44.412;11.918;2023-04-01T00:25:44;8.48;;;4.05;;
39314;SDS011;28703;44.412;11.918;2023-04-01T00:28:13;6.63;;;3.65;;
39314;SDS011;28703;44.412;11.918;2023-04-01T00:30:40;5.05;;;3.00;;
39314;SDS011;28703;44.412;11.918;2023-04-01T00:33:07;5.80;;;2.90;;
39314;SDS011;28703;44.412;11.918;2023-04-01T00:35:32;3.42;;;2.58;;
39314;SDS011;28703;44.412;11.918;2023-04-01T00:38:00;2.28;;;2.13;;
39314;SDS011;28703;44.412;11.918;2023-04-01T00:40:30;3.78;;;2.85;;
39314;SDS011;28703;44.412;11.918;2023-04-01T00:42:58;2.70;;;2.25;;
39314;SDS011;28703;44.412;11.918;2023-04-01T00:45:33;3.22;;;2.53;;
39314;SDS011;28703;44.412;11.918;2023-04-01T00:48:06;5.60;;;3.00;;
39314;SDS011;28703;44.412;11.918;2023-04-01T00:50:38;3.17;;;2.50;;
39314;SDS011;28703;44.412;11.918;2023-04-01T00:53:07;7.25;;;2.85;;
39314;SDS011;28703;44.412;11.918;2023-04-01T00:55:35;3.63;;;2.67;;
39314;SDS011;28703;44.412;11.918;2023-04-01T00:58:06;4.95;;;2.85;;
39314;SDS011;28703;44.412;11.918;2023-04-01T01:00:34;4.30;;;3.20;;
39314;SDS011;28703;44.412;11.918;2023-04-01T01:03:01;4.45;;;3.10;;
39314;SDS011;28703;44.412;11.918;2023-04-01T01:05:46;5.82;;;4.25;;
39314;SDS011;28703;44.412;11.918;2023-04-01T01:08:29;7.35;;;4.28;;
39314;SDS011;28703;44.412;11.918;2023-04-01T01:11:17;5.40;;;4.53;;
39314;SDS011;28703;44.412;11.918;2023-04-01T01:13:58;6.40;;;4.07;;
39314;SDS011;28703;44.412;11.918;2023-04-01T01:16:36;6.25;;;3.83;;
39314;SDS011;28703;44.412;11.918;2023-04-01T01:19:15;5.88;;;4.13;;
39314;SDS011;28703;44.412;11.918;2023-04-01T01:25:04;4.97;;;3.53;;
39314;SDS011;28703;44.412;11.918;2023-04-01T01:31:00;4.00;;;3.60;;
39314;SDS011;28703;44.412;11.918;2023-04-01T01:36:09;5.93;;;3.67;;
39314;SDS011;28703;44.412;11.918;2023-04-01T01:38:39;4.05;;;3.60;;
39314;SDS011;28703;44.412;11.918;2023-04-01T01:41:06;6.60;;;3.45;;
39314;SDS011;28703;44.412;11.918;2023-04-01T01:43:35;4.55;;;3.28;;
39314;SDS011;28703;44.412;11.918;2023-04-01T01:46:07;5.45;;;2.80;;
39314;SDS011;28703;44.412;11.918;2023-04-01T01:48:38;3.08;;;2.80;;
39314;SDS011;28703;44.412;11.918;2023-04-01T01:51:07;2.80;;;2.60;;
39314;SDS011;28703;44.412;11.918;2023-04-01T01:53:33;3.60;;;2.70;;
39314;SDS011;28703;44.412;11.918;2023-04-01T01:56:03;3.05;;;2.60;;
39314;SDS011;28703;44.412;11.918;2023-04-01T01:58:39;2.88;;;2.58;;
39314;SDS011;28703;44.412;11.918;2023-04-01T02:01:13;4.78;;;2.90;;
39314;SDS011;28703;44.412;11.918;2023-04-01T02:06:12;4.05;;;2.80;;
39314;SDS011;28703;44.412;11.918;2023-04-01T02:11:18;6.40;;;3.13;;
39314;SDS011;28703;44.412;11.918;2023-04-01T02:14:02;3.22;;;2.80;;
39314;SDS011;28703;44.412;11.918;2023-04-01T02:16:36;4.85;;;3.47;;
39314;SDS011;28703;44.412;11.918;2023-04-01T02:19:09;4.32;;;3.55;;
39314;SDS011;28703;44.412;11.918;2023-04-01T02:21:37;4.45;;;3.67;;
